RJBB/KIX METAR and TAF weather

Enter ICAO airport designator
Station Type Date Time Source
RJBB METAR 2020/01/29 03:30 UTC NOAA

RJBB 290330Z 29017KT 9999 FEW015 SCT045 BKN060 13/07 Q1008 NOSIG


Station Type Date Time Source
RJBB Decoded METAR 2020/01/29 03:30 UTC NOAA

Kansai International Airport, Japan (RJBB) 34-25N 135-15E 8M
Jan 28, 2020 - 10:30 PM EST / 2020.01.29 0330 UTC
Wind: from the WNW (290 degrees) at 20 MPH (17 KT):0
Visibility: greater than 7 mile(s):0
Sky conditions: mostly cloudy
Temperature: 55 F (13 C)
Dew Point: 44 F (7 C)
Relative Humidity: 66%
Pressure (altimeter): 29.77 in. Hg (1008 hPa)
ob: RJBB 290330Z 29017KT 9999 FEW015 SCT045 BKN060 13/07 Q1008 NOSIG
cycle: 3

Station Type Date Time Source
RJBB TAF 2020/01/28 21:11 UTC NOAA

TAF
AMD RJBB 282108Z 2821/3000 29014KT 9999 FEW025 SCT050
TEMPO 2821/2900 3000 -SHRA BR FEW005 BKN009 BKN015

Example: see airport list